Terminal Aerodrome Forecast
Issued by NWS

Home | Current Version | Previous Version | Graphics & Text | Print | Product List | Glossary On
Versions: 1 2 3 4 5 6 7 8 9 10 11 12
000
FTUS43 KIWX 252339
TAFSBN
TAF
KSBN 252339Z 2600/2624 15008KT P6SM -SHRA SCT040 OVC080
     FM260200 17010KT P6SM VCSH SCT030 OVC060
     FM260700 25010KT 6SM -SHRA SCT020 OVC040
     FM261200 28012KT P6SM VCSH OVC060
     FM261400 28016G25KT P6SM BKN150=

USA.gov is the U.S. government's official web portal to all federal, state and local government web resources and services.